FDX1174 KLAX-KMSN
Flight info
| Callsign | FDX1174 |
|---|---|
| Flight time | N/A |
| Altitude | 39000 |
| Route | ORCKA5 LAS J146 DVC FQF OZB TODDO OGECA MSN |
| Aircraft | MD11/H-SDE1E2E3FGHIJ2J3J4J5M1RWXY/LB1D1 |
Departure
| Time | 2026-04-20 17:21 |
|---|---|
| Airport | Los Angeles International Airport (KLAX) |
Arrival
| Time | N/A |
|---|---|
| Airport | Dane County Regional Truax Field (KMSN) |
| Time | Latitude | Longitude | Altitude | Speed | Heading |
|---|---|---|---|---|---|
| 2026-04-20 16:59 | 33.93402 | -118.38838 | 133 ft | 0 kts | 173° |
| 2026-04-20 17:10 | 33.93405 | -118.38838 | 133 ft | 1 kts | 173° |
| 2026-04-20 17:11 | 33.93422 | -118.38841 | 125 ft | 3 kts | 173° |
| 2026-04-20 17:11 | 33.93442 | -118.38844 | 133 ft | 3 kts | 173° |
| 2026-04-20 17:11 | 33.93463 | -118.38847 | 133 ft | 3 kts | 173° |
| 2026-04-20 17:11 | 33.93480 | -118.38849 | 127 ft | 3 kts | 154° |
| 2026-04-20 17:12 | 33.93492 | -118.38858 | 133 ft | 3 kts | 118° |
| 2026-04-20 17:12 | 33.93499 | -118.38877 | 133 ft | 3 kts | 92° |
| 2026-04-20 17:12 | 33.93499 | -118.38890 | 133 ft | 0 kts | 83° |
| 2026-04-20 17:17 | 33.93509 | -118.38863 | 129 ft | 11 kts | 59° |
| 2026-04-20 17:17 | 33.93571 | -118.38714 | 132 ft | 29 kts | 81° |
| 2026-04-20 17:18 | 33.93597 | -118.38431 | 130 ft | 34 kts | 83° |
| 2026-04-20 17:18 | 33.93608 | -118.38327 | 125 ft | 0 kts | 83° |
| 2026-04-20 17:18 | 33.93608 | -118.38323 | 125 ft | 1 kts | 83° |
| 2026-04-20 17:18 | 33.93609 | -118.38318 | 125 ft | 0 kts | 83° |
| 2026-04-20 17:19 | 33.93625 | -118.38288 | 127 ft | 9 kts | 44° |
| 2026-04-20 17:20 | 33.93714 | -118.38281 | 127 ft | 12 kts | 330° |
| 2026-04-20 17:20 | 33.93732 | -118.38345 | 129 ft | 7 kts | 262° |
| 2026-04-20 17:20 | 33.93694 | -118.38735 | 128 ft | 94 kts | 262° |
| 2026-04-20 17:20 | 33.93574 | -118.39853 | 135 ft | 172 kts | 263° |
| 2026-04-20 17:21 | 33.93424 | -118.41437 | 401 ft | 205 kts | 263° |
| 2026-04-20 17:21 | 33.93258 | -118.43170 | 1293 ft | 207 kts | 262° |
| 2026-04-20 17:21 | 33.93056 | -118.44869 | 2320 ft | 203 kts | 259° |
| 2026-04-20 17:21 | 33.92785 | -118.46550 | 3186 ft | 208 kts | 256° |
| 2026-04-20 17:22 | 33.92417 | -118.48256 | 4030 ft | 211 kts | 251° |
| 2026-04-20 17:22 | 33.91937 | -118.49935 | 4904 ft | 213 kts | 247° |
| 2026-04-20 17:22 | 33.91325 | -118.51598 | 5694 ft | 222 kts | 242° |
| 2026-04-20 17:22 | 33.90581 | -118.53221 | 6536 ft | 226 kts | 237° |
| 2026-04-20 17:23 | 33.89703 | -118.54789 | 7376 ft | 226 kts | 233° |
| 2026-04-20 17:23 | 33.88893 | -118.56550 | 7634 ft | 256 kts | 246° |
| 2026-04-20 17:23 | 33.88242 | -118.58592 | 8192 ft | 264 kts | 248° |
| 2026-04-20 17:23 | 33.87617 | -118.60677 | 8919 ft | 267 kts | 249° |
| 2026-04-20 17:24 | 33.87191 | -118.62099 | 9428 ft | 267 kts | 244° |
| 2026-04-20 17:24 | 33.86203 | -118.63930 | 10165 ft | 264 kts | 224° |
| 2026-04-20 17:24 | 33.84717 | -118.65212 | 10847 ft | 265 kts | 203° |
| 2026-04-20 17:24 | 33.82920 | -118.65709 | 11470 ft | 273 kts | 181° |
| 2026-04-20 17:25 | 33.80979 | -118.65229 | 11589 ft | 301 kts | 157° |
| 2026-04-20 17:25 | 33.79213 | -118.63680 | 11749 ft | 330 kts | 134° |
| 2026-04-20 17:25 | 33.77965 | -118.61233 | 11903 ft | 359 kts | 113° |
| 2026-04-20 17:25 | 33.77521 | -118.58218 | 12395 ft | 375 kts | 91° |
| 2026-04-20 17:26 | 33.77971 | -118.55099 | 13097 ft | 385 kts | 72° |
| 2026-04-20 17:26 | 33.79229 | -118.52222 | 13766 ft | 394 kts | 57° |
| 2026-04-20 17:26 | 33.80908 | -118.49575 | 14375 ft | 400 kts | 52° |
| 2026-04-20 17:26 | 33.82689 | -118.47024 | 14960 ft | 405 kts | 51° |
| 2026-04-20 17:27 | 33.84541 | -118.44433 | 15580 ft | 410 kts | 50° |
| 2026-04-20 17:27 | 33.86390 | -118.41797 | 16147 ft | 414 kts | 52° |
| 2026-04-20 17:27 | 33.88414 | -118.39303 | 16709 ft | 419 kts | 39° |
| 2026-04-20 17:27 | 33.90809 | -118.37259 | 17287 ft | 425 kts | 32° |
| 2026-04-20 17:28 | 33.93348 | -118.35393 | 17893 ft | 429 kts | 30° |
| 2026-04-20 17:28 | 33.95928 | -118.33535 | 18447 ft | 434 kts | 31° |
| 2026-04-20 17:28 | 33.98482 | -118.31645 | 18981 ft | 437 kts | 32° |
| 2026-04-20 17:28 | 34.00949 | -118.29474 | 19467 ft | 440 kts | 43° |
| 2026-04-20 17:29 | 34.03005 | -118.26720 | 19995 ft | 443 kts | 53° |
| 2026-04-20 17:29 | 34.04799 | -118.23675 | 20475 ft | 447 kts | 57° |
| 2026-04-20 17:29 | 34.06499 | -118.20513 | 20997 ft | 451 kts | 58° |
| 2026-04-20 17:29 | 34.08191 | -118.17315 | 21511 ft | 454 kts | 58° |
| 2026-04-20 17:30 | 34.09915 | -118.14099 | 22021 ft | 458 kts | 57° |
| 2026-04-20 17:30 | 34.11652 | -118.10922 | 22531 ft | 462 kts | 57° |
| 2026-04-20 17:30 | 34.13469 | -118.07647 | 23049 ft | 465 kts | 56° |
| 2026-04-20 17:30 | 34.15268 | -118.04438 | 23570 ft | 467 kts | 56° |
| 2026-04-20 17:31 | 34.17102 | -118.01181 | 24013 ft | 470 kts | 56° |
| 2026-04-20 17:31 | 34.18952 | -117.97900 | 24474 ft | 473 kts | 56° |
| 2026-04-20 17:31 | 34.20807 | -117.94609 | 24903 ft | 475 kts | 56° |
| 2026-04-20 17:31 | 34.22670 | -117.91299 | 25352 ft | 478 kts | 56° |
| 2026-04-20 17:32 | 34.24541 | -117.87971 | 25752 ft | 480 kts | 56° |
| 2026-04-20 17:32 | 34.26418 | -117.84627 | 26181 ft | 483 kts | 56° |
| 2026-04-20 17:32 | 34.28285 | -117.81297 | 26580 ft | 485 kts | 56° |
| 2026-04-20 17:32 | 34.30181 | -117.77911 | 27061 ft | 486 kts | 56° |
| 2026-04-20 17:33 | 34.32071 | -117.74534 | 27638 ft | 484 kts | 56° |
| 2026-04-20 17:33 | 34.33955 | -117.71167 | 28197 ft | 483 kts | 56° |
| 2026-04-20 17:33 | 34.35862 | -117.67827 | 28768 ft | 482 kts | 56° |
| 2026-04-20 17:33 | 34.37798 | -117.64524 | 29320 ft | 480 kts | 55° |
| 2026-04-20 17:34 | 34.39747 | -117.61244 | 29876 ft | 479 kts | 55° |
| 2026-04-20 17:34 | 34.41696 | -117.57978 | 30376 ft | 477 kts | 55° |
| 2026-04-20 17:34 | 34.43640 | -117.54722 | 30847 ft | 475 kts | 55° |
| 2026-04-20 17:34 | 34.45571 | -117.51480 | 31399 ft | 473 kts | 55° |
| 2026-04-20 17:35 | 34.47467 | -117.48291 | 31882 ft | 471 kts | 55° |
| 2026-04-20 17:35 | 34.49378 | -117.45069 | 32399 ft | 468 kts | 54° |
| 2026-04-20 17:35 | 34.51273 | -117.41869 | 32915 ft | 465 kts | 54° |
| 2026-04-20 17:35 | 34.53158 | -117.38683 | 33358 ft | 463 kts | 54° |
| 2026-04-20 17:36 | 34.55048 | -117.35484 | 33616 ft | 461 kts | 55° |
| 2026-04-20 17:36 | 34.56736 | -117.32631 | 36236 ft | 383 kts | 55° |